createdAt,value
2019-03-21T00:00:49.213Z,5.83
2019-03-21T00:03:16.432Z,6.60
2019-03-21T00:05:44.837Z,6.23
2019-03-21T00:08:13.264Z,6.33
2019-03-21T00:10:47.171Z,6.73
2019-03-21T00:13:15.582Z,6.00
2019-03-21T00:15:50.053Z,7.07
2019-03-21T00:18:18.455Z,6.70
2019-03-21T00:20:46.936Z,6.87
2019-03-21T00:23:15.339Z,6.50
2019-03-21T00:25:43.822Z,6.77
2019-03-21T00:28:12.323Z,6.73
2019-03-21T00:30:40.801Z,6.20
2019-03-21T00:33:09.185Z,6.10
2019-03-21T00:35:38.683Z,6.80
2019-03-21T00:38:07.195Z,6.77
2019-03-21T00:40:43.865Z,7.10
2019-03-21T00:43:12.877Z,7.60
2019-03-21T00:45:41.315Z,7.03
2019-03-21T00:48:16.247Z,7.47
2019-03-21T00:50:44.652Z,6.83
2019-03-21T00:53:13.158Z,7.67
2019-03-21T00:55:44.910Z,7.27
2019-03-21T00:58:13.315Z,7.40
2019-03-21T01:00:44.864Z,7.80
2019-03-21T01:03:14.045Z,7.80
2019-03-21T01:05:42.884Z,6.90
2019-03-21T01:08:11.363Z,6.40
2019-03-21T01:10:39.790Z,6.17
2019-03-21T01:13:08.200Z,8.03
2019-03-21T01:15:36.616Z,7.50
2019-03-21T01:18:05.282Z,7.20
2019-03-21T01:20:33.693Z,7.90
2019-03-21T01:23:02.489Z,6.70
2019-03-21T01:25:37.226Z,7.27
2019-03-21T01:28:05.722Z,6.40
2019-03-21T01:30:34.114Z,7.60
2019-03-21T01:33:02.521Z,6.97
2019-03-21T01:35:30.948Z,6.97
2019-03-21T01:37:59.340Z,6.90
2019-03-21T01:40:46.015Z,7.00
2019-03-21T01:43:14.486Z,7.70
2019-03-21T01:45:42.881Z,8.60
2019-03-21T01:48:11.531Z,7.33
2019-03-21T01:50:41.083Z,7.90
2019-03-21T01:53:09.498Z,7.40
2019-03-21T01:55:37.911Z,7.20
2019-03-21T01:58:06.587Z,6.23
2019-03-21T02:00:40.208Z,6.97
2019-03-21T02:03:08.602Z,6.30
2019-03-21T02:05:37.026Z,6.93
2019-03-21T02:08:05.674Z,7.27
2019-03-21T02:10:34.721Z,7.20
2019-03-21T02:13:03.188Z,7.40
2019-03-21T02:15:31.664Z,7.17
2019-03-21T02:18:00.066Z,8.20
2019-03-21T02:20:28.882Z,6.80
2019-03-21T02:22:57.363Z,7.10
2019-03-21T02:25:28.625Z,7.63
2019-03-21T02:27:57.070Z,7.00
2019-03-21T02:33:46.495Z,7.40
2019-03-21T02:36:14.905Z,7.90
2019-03-21T02:38:43.346Z,6.73
2019-03-21T02:41:16.509Z,8.47
2019-03-21T02:43:44.939Z,6.90
2019-03-21T02:46:13.416Z,7.93
2019-03-21T02:48:41.823Z,7.03
2019-03-21T02:51:10.275Z,6.83
2019-03-21T02:53:38.644Z,7.00
2019-03-21T02:56:10.409Z,8.30
2019-03-21T02:58:38.830Z,7.07
2019-03-21T03:01:07.238Z,7.53
2019-03-21T03:03:35.644Z,7.57
2019-03-21T03:06:04.181Z,7.47
2019-03-21T03:08:32.641Z,7.23
2019-03-21T03:11:13.150Z,6.53
2019-03-21T03:13:44.025Z,7.50
2019-03-21T03:16:12.424Z,7.80
2019-03-21T03:18:40.924Z,7.30
2019-03-21T03:21:09.322Z,8.33
2019-03-21T03:23:37.747Z,8.40
2019-03-21T03:26:06.175Z,7.40
2019-03-21T03:28:37.653Z,7.67
2019-03-21T03:31:06.063Z,8.63
2019-03-21T03:33:34.461Z,7.77
2019-03-21T03:36:02.941Z,8.47
2019-03-21T03:38:31.396Z,7.70
2019-03-21T03:41:04.895Z,8.10
2019-03-21T03:43:33.522Z,7.10
2019-03-21T03:46:01.985Z,7.63
2019-03-21T03:48:30.660Z,7.83
2019-03-21T03:50:59.058Z,7.30
2019-03-21T03:53:27.466Z,8.57
2019-03-21T03:55:55.968Z,8.07
2019-03-21T03:58:25.806Z,7.20
2019-03-21T04:00:54.270Z,8.80
2019-03-21T04:03:22.843Z,9.30
2019-03-21T04:05:51.265Z,8.30
2019-03-21T04:08:19.650Z,8.23
2019-03-21T04:10:50.442Z,8.50
2019-03-21T04:13:18.850Z,8.67
2019-03-21T04:15:53.394Z,8.87
2019-03-21T04:18:19.709Z,9.00
2019-03-21T04:20:59.878Z,8.60
2019-03-21T04:23:28.301Z,8.67
2019-03-21T04:26:06.029Z,9.73
2019-03-21T04:28:34.670Z,9.17
2019-03-21T04:31:03.143Z,8.40
2019-03-21T04:33:31.530Z,9.40
2019-03-21T04:35:59.936Z,9.50
2019-03-21T04:38:28.436Z,8.80
2019-03-21T04:40:56.845Z,8.63
2019-03-21T04:43:25.314Z,9.10
2019-03-21T04:46:02.971Z,8.70
2019-03-21T04:48:23.870Z,8.37
2019-03-21T04:50:52.309Z,10.03
2019-03-21T04:53:20.702Z,9.60
2019-03-21T04:55:49.114Z,9.40
2019-03-21T04:58:17.617Z,10.10
2019-03-21T05:00:57.241Z,9.07
2019-03-21T05:03:30.209Z,9.83
2019-03-21T05:05:58.605Z,10.80
2019-03-21T05:08:27.036Z,10.73
2019-03-21T05:10:55.508Z,9.90
2019-03-21T05:13:23.904Z,9.63
2019-03-21T05:15:53.857Z,10.50
2019-03-21T05:18:41.183Z,10.07
2019-03-21T05:21:12.651Z,10.00
2019-03-21T05:23:41.060Z,9.33
2019-03-21T05:26:09.471Z,9.57
2019-03-21T05:28:37.898Z,9.67
2019-03-21T05:31:24.601Z,10.57
2019-03-21T05:33:53.053Z,9.50
2019-03-21T05:36:21.459Z,10.17
2019-03-21T05:38:49.868Z,9.90
2019-03-21T05:41:18.302Z,10.77
2019-03-21T05:43:52.747Z,9.53
2019-03-21T05:46:26.513Z,10.60
2019-03-21T05:48:51.433Z,9.60
2019-03-21T05:51:19.828Z,9.87
2019-03-21T05:53:48.251Z,10.90
2019-03-21T05:56:16.673Z,11.90
2019-03-21T05:58:45.188Z,10.47
2019-03-21T06:01:14.100Z,10.30
2019-03-21T06:03:49.827Z,10.77
2019-03-21T06:06:21.286Z,10.10
2019-03-21T06:08:49.787Z,10.53
2019-03-21T06:11:18.163Z,10.83
2019-03-21T06:13:46.588Z,11.37
2019-03-21T06:16:14.995Z,10.80
2019-03-21T06:18:55.518Z,10.60
2019-03-21T06:21:26.972Z,10.80
2019-03-21T06:24:27.619Z,11.37
2019-03-21T06:27:13.970Z,12.40
2019-03-21T06:29:35.269Z,11.47
2019-03-21T06:32:03.856Z,10.93
2019-03-21T06:34:32.464Z,12.97
2019-03-21T06:37:00.884Z,13.53
2019-03-21T06:39:29.284Z,11.37
2019-03-21T06:41:57.702Z,12.87
2019-03-21T06:44:26.126Z,12.23
2019-03-21T06:46:54.562Z,13.20
2019-03-21T06:49:22.969Z,12.60
2019-03-21T06:51:51.406Z,12.50
2019-03-21T06:54:19.815Z,13.03
2019-03-21T06:56:48.252Z,14.63
2019-03-21T06:59:16.661Z,13.00
2019-03-21T07:01:45.081Z,13.07
2019-03-21T07:04:13.500Z,13.93
2019-03-21T07:06:41.992Z,15.03
2019-03-21T07:09:10.443Z,14.83
2019-03-21T07:11:38.864Z,15.50
2019-03-21T07:14:07.340Z,13.50
2019-03-21T07:16:35.891Z,15.90
2019-03-21T07:19:04.371Z,13.90
2019-03-21T07:21:32.893Z,14.57
2019-03-21T07:24:01.297Z,14.40
2019-03-21T07:26:29.711Z,14.53
2019-03-21T07:28:58.147Z,15.70
2019-03-21T07:31:26.558Z,15.17
2019-03-21T07:33:54.969Z,16.80
2019-03-21T07:36:26.085Z,16.27
2019-03-21T07:38:53.614Z,16.80
2019-03-21T07:41:22.041Z,17.30
2019-03-21T07:43:50.465Z,17.73
2019-03-21T07:46:18.871Z,16.73
2019-03-21T07:48:47.310Z,18.00
2019-03-21T07:51:15.772Z,18.40
2019-03-21T07:53:44.192Z,16.60
2019-03-21T07:56:12.642Z,15.47
2019-03-21T07:58:41.087Z,15.30
2019-03-21T08:01:09.704Z,14.27
2019-03-21T08:03:38.154Z,15.03
2019-03-21T08:06:06.582Z,16.07
2019-03-21T08:08:34.996Z,15.00
2019-03-21T08:11:03.497Z,14.73
2019-03-21T08:13:31.913Z,15.13
2019-03-21T08:16:00.435Z,12.90
2019-03-21T08:18:28.844Z,13.00
2019-03-21T08:20:59.930Z,13.93
2019-03-21T08:23:27.424Z,13.40
2019-03-21T08:25:55.834Z,13.50
2019-03-21T08:28:24.304Z,13.57
2019-03-21T08:31:07.760Z,14.70
2019-03-21T08:33:36.205Z,13.87
2019-03-21T08:36:04.790Z,14.67
2019-03-21T08:38:33.214Z,13.37
2019-03-21T08:41:01.651Z,13.87
2019-03-21T08:43:30.060Z,14.17
2019-03-21T08:45:58.473Z,16.17
2019-03-21T08:48:26.949Z,18.80
2019-03-21T08:50:55.374Z,17.17
2019-03-21T08:53:23.789Z,15.00
2019-03-21T08:55:52.194Z,14.83
2019-03-21T08:58:20.621Z,13.90
2019-03-21T09:00:49.072Z,14.40
2019-03-21T09:03:17.471Z,15.80
2019-03-21T09:05:45.968Z,14.60
2019-03-21T09:08:14.405Z,18.60
2019-03-21T09:10:42.891Z,13.97
2019-03-21T09:13:11.341Z,12.50
2019-03-21T09:15:39.768Z,13.10
2019-03-21T09:18:08.192Z,12.70
2019-03-21T09:20:36.612Z,11.37
2019-03-21T09:23:05.079Z,11.90
2019-03-21T09:25:33.502Z,11.83
2019-03-21T09:28:02.868Z,11.47
2019-03-21T09:30:31.592Z,10.70
2019-03-21T09:33:00.011Z,11.83
2019-03-21T09:35:28.517Z,12.10
2019-03-21T09:37:56.933Z,12.80
2019-03-21T09:40:25.347Z,13.53
2019-03-21T09:42:53.849Z,13.63
2019-03-21T09:45:22.400Z,12.30
2019-03-21T09:47:50.838Z,12.73
2019-03-21T09:50:27.823Z,12.77
2019-03-21T09:52:56.336Z,12.83
2019-03-21T09:55:25.294Z,13.07
2019-03-21T09:57:53.694Z,12.07
2019-03-21T10:00:36.999Z,12.80
2019-03-21T10:03:06.366Z,14.10
2019-03-21T10:05:34.844Z,13.57
2019-03-21T10:08:03.706Z,12.93
2019-03-21T10:10:33.448Z,12.57
2019-03-21T10:13:01.983Z,13.67
2019-03-21T10:15:30.469Z,13.00
2019-03-21T10:17:58.978Z,11.90
2019-03-21T10:20:27.422Z,12.17
2019-03-21T10:22:55.812Z,13.90
2019-03-21T10:25:26.525Z,12.80
2019-03-21T10:27:54.397Z,11.43
2019-03-21T10:30:34.529Z,12.03
2019-03-21T10:33:03.969Z,13.07
2019-03-21T10:35:32.723Z,14.20
2019-03-21T10:38:01.476Z,13.30
2019-03-21T10:40:29.911Z,15.23
2019-03-21T10:42:58.323Z,15.60
2019-03-21T10:45:26.770Z,12.87
2019-03-21T10:47:55.249Z,18.20
2019-03-21T10:50:35.341Z,14.70
2019-03-21T10:53:04.569Z,18.50
2019-03-21T10:55:32.995Z,19.17
2019-03-21T10:58:01.416Z,15.87
2019-03-21T11:00:29.940Z,15.63
2019-03-21T11:05:42.190Z,17.17
2019-03-21T11:08:10.762Z,13.50
2019-03-21T11:10:39.222Z,14.63
2019-03-21T11:13:07.738Z,14.50
2019-03-21T11:15:36.410Z,14.20
2019-03-21T11:18:05.055Z,15.03
2019-03-21T11:20:35.133Z,13.90
2019-03-21T11:23:04.593Z,15.03
2019-03-21T11:25:33.071Z,22.20
2019-03-21T11:28:01.563Z,15.20
2019-03-21T11:30:35.145Z,14.07
2019-03-21T11:33:04.226Z,13.70
2019-03-21T11:35:34.148Z,12.00
2019-03-21T11:38:02.749Z,11.80
2019-03-21T11:40:31.287Z,11.93
2019-03-21T11:42:59.956Z,11.27
2019-03-21T11:45:28.619Z,13.10
2019-03-21T11:47:59.652Z,10.83
2019-03-21T11:50:27.396Z,8.87
2019-03-21T11:52:55.827Z,8.77
2019-03-21T11:55:24.383Z,8.30
2019-03-21T11:57:52.872Z,8.43
2019-03-21T12:00:21.373Z,9.20
2019-03-21T12:02:49.778Z,9.57
2019-03-21T12:05:18.359Z,11.70
2019-03-21T12:07:46.850Z,9.57
2019-03-21T12:10:16.696Z,9.20
2019-03-21T12:12:45.132Z,8.97
2019-03-21T12:15:14.162Z,10.17
2019-03-21T12:17:42.591Z,8.97
2019-03-21T12:20:13.827Z,9.40
2019-03-21T12:22:42.246Z,9.40
2019-03-21T12:25:11.087Z,9.50
2019-03-21T12:27:39.515Z,8.83
2019-03-21T12:30:11.100Z,10.40
2019-03-21T12:32:39.536Z,9.30
2019-03-21T12:35:08.498Z,10.07
2019-03-21T12:37:36.914Z,9.00
2019-03-21T12:40:09.254Z,9.00
2019-03-21T12:42:37.671Z,8.93
2019-03-21T12:45:10.174Z,10.17
2019-03-21T12:47:38.657Z,9.70
2019-03-21T12:50:08.743Z,8.90
2019-03-21T12:52:41.589Z,9.43
2019-03-21T12:55:08.020Z,10.63
2019-03-21T12:57:36.519Z,10.07
2019-03-21T13:00:10.535Z,10.60
2019-03-21T13:02:39.070Z,12.37
2019-03-21T13:05:08.606Z,11.70
2019-03-21T13:07:37.176Z,12.93
2019-03-21T13:10:06.954Z,12.57
2019-03-21T13:12:35.421Z,11.27
2019-03-21T13:15:05.773Z,13.23
2019-03-21T13:17:34.186Z,12.93
2019-03-21T13:20:02.690Z,13.50
2019-03-21T13:22:31.102Z,12.23
2019-03-21T13:24:59.526Z,13.20
2019-03-21T13:27:27.927Z,18.57
2019-03-21T13:29:56.473Z,13.00
2019-03-21T13:32:24.940Z,12.50
2019-03-21T13:34:53.437Z,12.80
2019-03-21T13:37:21.852Z,13.20
2019-03-21T13:39:50.246Z,13.97
2019-03-21T13:42:18.689Z,13.20
2019-03-21T13:44:47.105Z,13.60
2019-03-21T13:47:15.608Z,12.90
2019-03-21T13:49:44.113Z,13.60
2019-03-21T13:52:12.526Z,13.80
2019-03-21T13:54:41.654Z,14.20
2019-03-21T13:57:10.129Z,15.20
2019-03-21T13:59:38.766Z,14.83
2019-03-21T14:02:07.218Z,14.20
2019-03-21T14:04:35.639Z,13.70
2019-03-21T14:07:04.121Z,14.57
2019-03-21T14:09:32.616Z,14.30
2019-03-21T14:12:01.038Z,14.00
2019-03-21T14:14:29.477Z,13.23
2019-03-21T14:16:57.949Z,14.07
2019-03-21T14:19:26.391Z,12.53
2019-03-21T14:21:54.832Z,12.87
2019-03-21T14:24:23.447Z,15.30
2019-03-21T14:26:51.874Z,16.33
2019-03-21T14:29:20.324Z,16.50
2019-03-21T14:31:48.762Z,14.73
2019-03-21T14:34:17.299Z,15.37
2019-03-21T14:36:45.724Z,18.10
2019-03-21T14:39:14.150Z,15.87
2019-03-21T14:41:42.599Z,16.13
2019-03-21T14:44:11.014Z,15.37
2019-03-21T14:46:39.472Z,15.93
2019-03-21T14:49:07.910Z,14.87
2019-03-21T14:51:36.328Z,16.70
2019-03-21T14:54:04.877Z,12.93
2019-03-21T14:56:33.315Z,14.53
2019-03-21T14:59:01.775Z,13.80
2019-03-21T15:01:30.168Z,13.77
2019-03-21T15:03:58.614Z,14.37
2019-03-21T15:06:27.040Z,13.97
2019-03-21T15:08:55.482Z,15.50
2019-03-21T15:11:23.897Z,14.30
2019-03-21T15:13:52.319Z,14.80
2019-03-21T15:16:20.841Z,14.90
2019-03-21T15:18:49.280Z,14.33
2019-03-21T15:21:17.713Z,14.60
2019-03-21T15:23:46.181Z,14.70
2019-03-21T15:26:14.589Z,13.13
2019-03-21T15:28:43.021Z,14.93
2019-03-21T15:31:11.478Z,13.37
2019-03-21T15:33:39.915Z,12.37
2019-03-21T15:36:08.412Z,12.70
2019-03-21T15:38:36.819Z,12.27
2019-03-21T15:41:05.325Z,13.07
2019-03-21T15:43:33.728Z,12.23
2019-03-21T15:46:02.224Z,13.30
2019-03-21T15:48:30.665Z,13.20
2019-03-21T15:51:04.547Z,13.33
2019-03-21T15:53:29.404Z,11.23
2019-03-21T15:55:57.804Z,11.70
2019-03-21T15:58:26.220Z,12.27
2019-03-21T16:00:54.818Z,12.10
2019-03-21T16:03:23.275Z,12.10
2019-03-21T16:05:51.723Z,11.60
2019-03-21T16:08:20.152Z,12.23
2019-03-21T16:10:53.444Z,11.77
2019-03-21T16:13:21.856Z,10.97
2019-03-21T16:15:50.276Z,10.53
2019-03-21T16:18:18.790Z,10.60
2019-03-21T16:20:47.308Z,10.20
2019-03-21T16:23:15.697Z,9.73
2019-03-21T16:25:44.141Z,9.57
2019-03-21T16:28:12.589Z,10.70
2019-03-21T16:30:41.094Z,10.67
2019-03-21T16:33:09.575Z,11.50
2019-03-21T16:35:38.013Z,10.77
2019-03-21T16:38:06.483Z,11.43
2019-03-21T16:40:34.992Z,10.50
2019-03-21T16:43:05.559Z,9.63
2019-03-21T16:45:33.723Z,9.67
2019-03-21T16:48:02.152Z,10.03
2019-03-21T16:50:30.595Z,9.80
2019-03-21T16:52:59.146Z,11.50
2019-03-21T16:55:27.638Z,10.57
2019-03-21T16:57:56.250Z,10.20
2019-03-21T17:00:24.759Z,9.73
2019-03-21T17:02:53.169Z,9.33
2019-03-21T17:05:22.626Z,11.67
2019-03-21T17:07:51.192Z,12.50
2019-03-21T17:10:21.462Z,11.37
2019-03-21T17:12:50.019Z,14.00
2019-03-21T17:15:18.479Z,15.70
2019-03-21T17:17:46.899Z,23.87
2019-03-21T17:20:15.574Z,33.53
2019-03-21T17:22:43.966Z,25.43
2019-03-21T17:25:13.429Z,12.80
2019-03-21T17:27:41.924Z,9.80
2019-03-21T17:30:15.162Z,11.50
2019-03-21T17:32:43.588Z,9.93
2019-03-21T17:35:12.752Z,10.27
2019-03-21T17:37:41.175Z,9.60
2019-03-21T17:40:12.594Z,7.90
2019-03-21T17:42:41.075Z,7.53
2019-03-21T17:45:12.516Z,7.27
2019-03-21T17:47:40.955Z,7.97
2019-03-21T17:50:12.205Z,8.77
2019-03-21T17:52:40.639Z,11.80
2019-03-21T17:55:10.296Z,9.00
2019-03-21T17:57:38.728Z,8.67
2019-03-21T18:00:20.685Z,8.53
2019-03-21T18:02:49.184Z,8.03
2019-03-21T18:05:17.604Z,7.53
2019-03-21T18:07:46.097Z,7.20
2019-03-21T18:10:17.561Z,7.93
2019-03-21T18:12:45.980Z,9.00
2019-03-21T18:15:14.698Z,8.60
2019-03-21T18:17:43.118Z,8.63
2019-03-21T18:20:11.541Z,6.97
2019-03-21T18:22:40.216Z,8.90
2019-03-21T18:25:08.794Z,8.60
2019-03-21T18:27:37.210Z,8.50
2019-03-21T18:30:07.641Z,9.00
2019-03-21T18:32:36.123Z,9.97
2019-03-21T18:35:06.306Z,10.60
2019-03-21T18:37:34.913Z,10.13
2019-03-21T18:40:03.583Z,11.97
2019-03-21T18:42:31.980Z,12.37
2019-03-21T18:45:00.427Z,10.90
2019-03-21T18:47:29.119Z,10.80
2019-03-21T18:49:57.555Z,11.37
2019-03-21T18:52:26.058Z,11.20
2019-03-21T18:55:05.702Z,9.80
2019-03-21T18:57:25.132Z,10.90
2019-03-21T18:59:53.964Z,11.47
2019-03-21T19:02:22.398Z,12.50
2019-03-21T19:04:50.914Z,11.17
2019-03-21T19:07:19.425Z,12.60
2019-03-21T19:09:47.932Z,13.53
2019-03-21T19:12:16.345Z,15.13
2019-03-21T19:14:44.761Z,14.70
2019-03-21T19:17:13.206Z,13.97
2019-03-21T19:19:41.647Z,13.63
2019-03-21T19:22:10.187Z,13.87
2019-03-21T19:24:38.622Z,14.40
2019-03-21T19:27:07.139Z,12.20
2019-03-21T19:29:35.691Z,11.70
2019-03-21T19:32:04.214Z,10.57
2019-03-21T19:34:32.639Z,13.07
2019-03-21T19:37:01.105Z,11.70
2019-03-21T19:39:29.543Z,12.00
2019-03-21T19:41:58.044Z,12.10
2019-03-21T19:44:26.477Z,11.67
2019-03-21T19:46:54.889Z,11.33
2019-03-21T19:49:23.351Z,11.53
2019-03-21T19:51:51.746Z,11.50
2019-03-21T19:54:20.196Z,11.47
2019-03-21T19:56:48.704Z,11.63
2019-03-21T19:59:17.112Z,12.30
2019-03-21T20:01:45.544Z,11.60
2019-03-21T20:04:13.955Z,12.37
2019-03-21T20:06:42.388Z,11.03
2019-03-21T20:09:10.807Z,11.63
2019-03-21T20:11:39.301Z,11.47
2019-03-21T20:14:07.953Z,10.40
2019-03-21T20:16:36.398Z,11.40
2019-03-21T20:19:04.930Z,10.73
2019-03-21T20:21:33.345Z,10.10
2019-03-21T20:24:01.782Z,11.80
2019-03-21T20:26:30.212Z,11.37
2019-03-21T20:28:58.714Z,11.43
2019-03-21T20:31:27.140Z,11.07
2019-03-21T20:33:55.565Z,10.97
2019-03-21T20:36:24.002Z,13.20
2019-03-21T20:38:52.404Z,14.13
2019-03-21T20:41:20.931Z,12.10
2019-03-21T20:43:49.399Z,11.97
2019-03-21T20:46:17.947Z,11.40
2019-03-21T20:48:45.234Z,25.37
2019-03-21T20:51:13.716Z,12.60
2019-03-21T20:53:42.125Z,10.60
2019-03-21T20:56:10.559Z,10.93
2019-03-21T20:58:39.016Z,10.67
2019-03-21T21:01:07.503Z,10.27
2019-03-21T21:03:35.902Z,10.33
2019-03-21T21:06:04.401Z,12.50
2019-03-21T21:08:32.807Z,11.93
2019-03-21T21:11:03.359Z,10.90
2019-03-21T21:13:31.867Z,10.00
2019-03-21T21:16:00.302Z,10.57
2019-03-21T21:18:28.756Z,10.27
2019-03-21T21:20:57.154Z,10.63
2019-03-21T21:23:25.592Z,18.40
2019-03-21T21:26:04.768Z,11.90
2019-03-21T21:28:24.361Z,11.50
2019-03-21T21:30:52.782Z,11.57
2019-03-21T21:33:21.203Z,12.07
2019-03-21T21:35:49.648Z,15.17
2019-03-21T21:38:18.077Z,13.83
2019-03-21T21:40:46.510Z,13.97
2019-03-21T21:43:14.948Z,13.40
2019-03-21T21:45:43.469Z,13.00
2019-03-21T21:48:11.829Z,14.00
2019-03-21T21:50:40.330Z,15.30
2019-03-21T21:53:08.825Z,16.30
2019-03-21T21:55:37.249Z,17.70
2019-03-21T21:58:05.668Z,15.60
2019-03-21T22:00:34.087Z,17.40
2019-03-21T22:03:02.595Z,17.70
2019-03-21T22:05:31.003Z,18.87
2019-03-21T22:07:59.499Z,17.00
2019-03-21T22:10:29.531Z,16.80
2019-03-21T22:12:58.215Z,16.90
2019-03-21T22:15:26.655Z,17.00
2019-03-21T22:17:55.118Z,16.53
2019-03-21T22:20:23.522Z,16.40
2019-03-21T22:22:51.947Z,17.40
2019-03-21T22:25:20.441Z,16.90
2019-03-21T22:27:48.872Z,16.77
2019-03-21T22:30:19.577Z,17.30
2019-03-21T22:32:48.071Z,16.10
2019-03-21T22:35:16.571Z,15.70
2019-03-21T22:37:44.994Z,16.23
2019-03-21T22:40:15.665Z,18.80
2019-03-21T22:42:44.081Z,18.40
2019-03-21T22:45:17.581Z,19.07
2019-03-21T22:47:45.958Z,17.77
2019-03-21T22:50:16.659Z,19.93
2019-03-21T22:52:45.728Z,19.87
2019-03-21T22:55:14.707Z,21.60
2019-03-21T22:57:43.159Z,20.90
2019-03-21T23:00:22.396Z,21.30
2019-03-21T23:02:50.930Z,21.03
2019-03-21T23:05:20.580Z,22.27
2019-03-21T23:07:49.072Z,19.90
2019-03-21T23:10:20.605Z,19.80
2019-03-21T23:12:49.110Z,20.77
2019-03-21T23:15:17.595Z,19.87
2019-03-21T23:17:46.063Z,18.93
2019-03-21T23:20:15.535Z,18.80
2019-03-21T23:22:44.163Z,18.70
2019-03-21T23:25:16.314Z,18.57
2019-03-21T23:27:43.817Z,16.10
2019-03-21T23:30:17.152Z,19.57
2019-03-21T23:32:45.702Z,19.17
2019-03-21T23:35:15.050Z,20.13
2019-03-21T23:37:43.512Z,20.63
2019-03-21T23:40:15.898Z,21.00
2019-03-21T23:42:44.483Z,22.70
2019-03-21T23:45:14.566Z,21.23
2019-03-21T23:47:43.133Z,21.13
2019-03-21T23:50:15.024Z,21.83
2019-03-21T23:52:43.667Z,21.90
2019-03-21T23:55:13.236Z,22.67
2019-03-21T23:57:41.739Z,20.93
